createdAt,value
2023-03-04T00:01:46.718Z,19.63
2023-03-04T00:05:56.138Z,17.42
2023-03-04T00:08:03.657Z,18.42
2023-03-04T00:10:09.909Z,19.63
2023-03-04T00:12:15.509Z,18.75
2023-03-04T00:14:20.304Z,19.70
2023-03-04T00:16:27.366Z,18.88
2023-03-04T00:18:35.128Z,20.98
2023-03-04T00:20:39.916Z,19.40
2023-03-04T00:22:44.699Z,20.85
2023-03-04T00:24:52.253Z,22.02
2023-03-04T00:26:57.024Z,19.42
2023-03-04T00:29:01.857Z,24.55
2023-03-04T00:31:06.880Z,20.35
2023-03-04T00:33:11.736Z,22.48
2023-03-04T00:35:16.494Z,25.25
2023-03-04T00:37:21.460Z,21.23
2023-03-04T00:39:26.252Z,18.67
2023-03-04T00:41:33.689Z,20.08
2023-03-04T00:43:38.535Z,18.42
2023-03-04T00:45:43.399Z,22.02
2023-03-04T00:47:48.190Z,19.10
2023-03-04T00:49:52.989Z,18.65
2023-03-04T00:51:57.863Z,20.27
2023-03-04T00:54:02.687Z,17.42
2023-03-04T00:56:08.209Z,18.25
2023-03-04T00:58:18.008Z,19.30
2023-03-04T01:00:23.671Z,19.52
2023-03-04T01:02:29.065Z,18.10
2023-03-04T01:04:33.882Z,16.42
2023-03-04T01:06:38.676Z,19.00
2023-03-04T01:08:44.421Z,19.52
2023-03-04T01:10:49.356Z,18.73
2023-03-04T01:12:54.166Z,18.52
2023-03-04T01:15:01.764Z,20.05
2023-03-04T01:17:06.674Z,19.05
2023-03-04T01:19:11.442Z,18.60
2023-03-04T01:21:16.810Z,19.40
2023-03-04T01:23:21.626Z,18.65
2023-03-04T01:25:26.552Z,23.77
2023-03-04T01:27:31.470Z,21.73
2023-03-04T01:29:36.226Z,18.60
2023-03-04T01:31:43.626Z,18.70
2023-03-04T01:33:48.405Z,19.77
2023-03-04T01:35:53.254Z,22.55
2023-03-04T01:37:58.248Z,19.38
2023-03-04T01:40:03.007Z,20.70
2023-03-04T01:42:07.905Z,19.58
2023-03-04T01:44:13.897Z,20.35
2023-03-04T01:46:18.863Z,17.08
2023-03-04T01:48:29.603Z,18.80
2023-03-04T01:50:36.810Z,16.80
2023-03-04T01:52:43.282Z,18.02
2023-03-04T01:54:48.080Z,16.58
2023-03-04T01:56:55.136Z,16.95
2023-03-04T01:59:11.977Z,15.48
2023-03-04T02:01:17.259Z,15.25
2023-03-04T02:03:23.013Z,15.30
2023-03-04T02:05:31.557Z,15.20
2023-03-04T02:07:36.617Z,15.40
2023-03-04T02:09:41.436Z,14.82
2023-03-04T02:11:49.246Z,13.60
2023-03-04T02:13:55.085Z,15.40
2023-03-04T02:15:59.934Z,16.88
2023-03-04T02:18:05.275Z,15.25
2023-03-04T02:20:21.201Z,15.13
2023-03-04T02:22:28.708Z,14.00
2023-03-04T02:24:38.968Z,15.00
2023-03-04T02:26:47.680Z,13.15
2023-03-04T02:28:55.096Z,14.15
2023-03-04T02:31:00.260Z,15.52
2023-03-04T02:33:05.152Z,15.05
2023-03-04T02:35:21.716Z,15.05
2023-03-04T02:37:26.674Z,13.27
2023-03-04T02:39:36.358Z,14.00
2023-03-04T02:41:44.421Z,14.80
2023-03-04T02:43:56.882Z,13.13
2023-03-04T02:46:04.296Z,15.30
2023-03-04T02:48:10.251Z,15.65
2023-03-04T02:50:15.530Z,14.32
2023-03-04T02:52:22.658Z,14.48
2023-03-04T02:54:27.865Z,15.38
2023-03-04T02:58:38.492Z,14.85
2023-03-04T03:00:46.460Z,14.55
2023-03-04T03:02:51.585Z,16.02
2023-03-04T03:04:56.806Z,15.13
2023-03-04T03:07:04.156Z,15.98
2023-03-04T03:09:10.237Z,15.70
2023-03-04T03:11:15.170Z,15.77
2023-03-04T03:13:19.996Z,15.18
2023-03-04T03:15:25.067Z,14.05
2023-03-04T03:19:39.611Z,14.20
2023-03-04T03:21:46.028Z,16.05
2023-03-04T03:23:50.865Z,16.42
2023-03-04T03:25:55.655Z,17.08
2023-03-04T03:28:00.410Z,18.25
2023-03-04T03:30:05.397Z,16.58
2023-03-04T03:32:10.606Z,16.60
2023-03-04T03:34:19.212Z,16.38
2023-03-04T03:36:25.680Z,20.15
2023-03-04T03:38:30.654Z,20.65
2023-03-04T03:40:35.673Z,21.63
2023-03-04T03:42:40.435Z,19.15
2023-03-04T03:44:45.344Z,19.10
2023-03-04T03:46:50.172Z,19.95
2023-03-04T03:48:54.977Z,20.73
2023-03-04T03:51:02.371Z,21.90
2023-03-04T03:53:07.325Z,20.08
2023-03-04T03:55:13.001Z,21.13
2023-03-04T03:57:17.852Z,22.20
2023-03-04T03:59:24.195Z,20.35
2023-03-04T04:01:29.017Z,20.38
2023-03-04T04:03:33.898Z,23.63
2023-03-04T04:05:38.694Z,18.02
2023-03-04T04:07:46.101Z,20.83
2023-03-04T04:09:50.864Z,18.30
2023-03-04T04:11:55.703Z,18.92
2023-03-04T04:14:00.515Z,21.35
2023-03-04T04:16:05.571Z,17.70
2023-03-04T04:20:15.713Z,18.95
2023-03-04T04:24:29.312Z,18.90
2023-03-04T04:26:34.108Z,17.48
2023-03-04T04:28:39.050Z,19.50
2023-03-04T04:30:44.124Z,17.88
2023-03-04T04:32:48.945Z,19.17
2023-03-04T04:34:53.715Z,19.92
2023-03-04T04:36:59.034Z,20.88
2023-03-04T04:41:22.687Z,20.65
2023-03-04T04:43:27.748Z,18.95
2023-03-04T04:45:34.708Z,19.95
2023-03-04T04:47:39.863Z,21.85
2023-03-04T04:49:44.737Z,20.65
2023-03-04T04:51:49.515Z,18.98
2023-03-04T04:53:54.362Z,17.85
2023-03-04T04:55:59.150Z,19.80
2023-03-04T04:58:08.825Z,23.10
2023-03-04T05:00:16.015Z,20.33
2023-03-04T05:02:21.061Z,21.15
2023-03-04T05:04:25.907Z,20.55
2023-03-04T05:06:30.847Z,20.10
2023-03-04T05:08:38.984Z,20.10
2023-03-04T05:10:43.754Z,21.52
2023-03-04T05:12:49.897Z,21.52
2023-03-04T05:14:57.317Z,22.92
2023-03-04T05:17:02.181Z,22.20
2023-03-04T05:19:06.986Z,22.95
2023-03-04T05:21:12.466Z,20.05
2023-03-04T05:23:17.258Z,18.63
2023-03-04T05:25:22.061Z,20.75
2023-03-04T05:27:26.923Z,21.60
2023-03-04T05:29:31.706Z,21.58
2023-03-04T05:31:39.283Z,20.48
2023-03-04T05:33:44.188Z,23.52
2023-03-04T05:35:50.612Z,22.15
2023-03-04T05:37:55.466Z,23.13
2023-03-04T05:40:00.269Z,26.92
2023-03-04T05:42:05.304Z,21.20
2023-03-04T05:46:16.959Z,23.23
2023-03-04T05:48:24.741Z,23.20
2023-03-04T05:50:29.805Z,23.27
2023-03-04T05:52:34.629Z,27.80
2023-03-04T05:54:39.528Z,26.92
2023-03-04T05:56:44.660Z,27.00
2023-03-04T06:00:54.625Z,24.00
2023-03-04T06:02:59.443Z,26.75
2023-03-04T06:05:07.258Z,23.92
2023-03-04T06:07:12.046Z,27.40
2023-03-04T06:09:17.065Z,23.85
2023-03-04T06:11:21.871Z,28.40
2023-03-04T06:13:26.914Z,28.15
2023-03-04T06:15:32.381Z,26.60
2023-03-04T06:17:37.297Z,27.13
2023-03-04T06:19:42.069Z,28.13
2023-03-04T06:21:49.484Z,28.17
2023-03-04T06:23:54.258Z,27.90
2023-03-04T06:26:00.627Z,27.90
2023-03-04T06:28:05.428Z,27.52
2023-03-04T06:30:12.652Z,28.33
2023-03-04T06:32:17.460Z,28.23
2023-03-04T06:34:22.476Z,24.98
2023-03-04T06:36:27.437Z,26.55
2023-03-04T06:38:34.873Z,28.38
2023-03-04T06:40:39.731Z,27.45
2023-03-04T06:42:45.039Z,26.08
2023-03-04T06:44:51.462Z,27.27
2023-03-04T06:46:56.594Z,26.95
2023-03-04T06:51:10.533Z,23.58
2023-03-04T06:53:16.273Z,25.67
2023-03-04T06:55:23.902Z,25.23
2023-03-04T06:57:28.735Z,27.35
2023-03-04T06:59:33.976Z,26.95
2023-03-04T07:03:43.377Z,29.15
2023-03-04T07:05:48.378Z,24.58
2023-03-04T07:07:53.412Z,27.85
2023-03-04T07:12:06.181Z,24.80
2023-03-04T07:14:10.947Z,23.05
2023-03-04T07:16:18.160Z,30.25
2023-03-04T07:18:23.008Z,26.65
2023-03-04T07:20:29.566Z,23.98
2023-03-04T07:22:36.902Z,26.95
2023-03-04T07:24:41.716Z,24.02
2023-03-04T07:26:46.462Z,28.10
2023-03-04T07:28:54.730Z,29.08
2023-03-04T07:30:59.510Z,24.80
2023-03-04T07:33:04.289Z,23.27
2023-03-04T07:35:10.328Z,25.38
2023-03-04T07:37:15.229Z,24.75
2023-03-04T07:39:20.052Z,24.08
2023-03-04T07:41:26.634Z,22.15
2023-03-04T07:43:31.487Z,25.27
2023-03-04T07:45:39.914Z,28.10
2023-03-04T07:47:45.142Z,23.83
2023-03-04T07:49:49.945Z,24.13
2023-03-04T07:51:54.747Z,22.50
2023-03-04T07:54:01.400Z,23.63
2023-03-04T07:56:06.845Z,20.67
2023-03-04T07:58:11.630Z,21.98
2023-03-04T08:00:19.422Z,22.65
2023-03-04T08:02:26.940Z,20.35
2023-03-04T08:04:31.862Z,23.95
2023-03-04T08:06:36.936Z,24.77
2023-03-04T08:08:43.070Z,23.67
2023-03-04T08:10:48.408Z,21.98
2023-03-04T08:14:57.797Z,27.35
2023-03-04T08:17:02.661Z,20.25
2023-03-04T08:19:10.862Z,20.73
2023-03-04T08:21:16.220Z,22.98
2023-03-04T08:23:21.600Z,22.27
2023-03-04T08:25:26.380Z,23.48
2023-03-04T08:27:33.506Z,23.73
2023-03-04T08:29:38.240Z,21.48
2023-03-04T08:31:46.846Z,24.83
2023-03-04T08:33:53.527Z,22.80
2023-03-04T08:36:00.955Z,23.55
2023-03-04T08:38:05.764Z,23.55
2023-03-04T08:40:12.206Z,23.80
2023-03-04T08:42:17.020Z,20.40
2023-03-04T08:44:22.004Z,21.80
2023-03-04T08:46:26.853Z,23.63
2023-03-04T08:48:31.678Z,24.25
2023-03-04T08:50:37.026Z,22.27
2023-03-04T08:52:44.433Z,25.05
2023-03-04T08:54:50.300Z,23.90
2023-03-04T08:56:55.109Z,23.63
2023-03-04T08:59:00.046Z,36.63
2023-03-04T09:01:05.755Z,29.35
2023-03-04T09:03:10.690Z,25.85
2023-03-04T09:05:18.230Z,29.63
2023-03-04T09:07:23.049Z,25.23
2023-03-04T09:09:30.717Z,31.83
2023-03-04T09:11:38.314Z,26.42
2023-03-04T09:13:43.626Z,25.30
2023-03-04T09:15:49.310Z,32.90
2023-03-04T09:17:54.233Z,53.97
2023-03-04T09:19:58.972Z,37.05
2023-03-04T09:22:03.817Z,29.52
2023-03-04T09:24:09.101Z,28.30
2023-03-04T09:26:24.258Z,22.67
2023-03-04T09:28:29.167Z,25.70
2023-03-04T09:30:34.185Z,25.20
2023-03-04T09:32:39.414Z,24.40
2023-03-04T09:36:48.916Z,24.88
2023-03-04T09:38:53.896Z,25.92
2023-03-04T09:41:10.624Z,26.52
2023-03-04T09:43:23.538Z,26.33
2023-03-04T09:45:33.159Z,26.67
2023-03-04T09:47:40.228Z,27.20
2023-03-04T09:49:48.544Z,28.75
2023-03-04T09:52:03.792Z,29.98
2023-03-04T09:54:10.754Z,25.52
2023-03-04T09:56:17.261Z,26.13
2023-03-04T09:58:36.483Z,22.77
2023-03-04T10:00:44.358Z,27.77
2023-03-04T10:03:02.765Z,25.20
2023-03-04T10:05:10.803Z,26.48
2023-03-04T10:07:21.609Z,23.98
2023-03-04T10:09:32.531Z,26.95
2023-03-04T10:11:43.706Z,24.13
2023-03-04T10:14:05.688Z,25.10
2023-03-04T10:16:18.469Z,26.77
2023-03-04T10:18:27.007Z,24.48
2023-03-04T10:20:41.847Z,23.23
2023-03-04T10:22:48.833Z,23.60
2023-03-04T10:25:00.668Z,23.45
2023-03-04T10:27:10.409Z,21.80
2023-03-04T10:29:19.840Z,22.80
2023-03-04T10:31:35.254Z,23.00
2023-03-04T10:33:42.174Z,20.63
2023-03-04T10:35:51.284Z,24.65
2023-03-04T10:37:56.555Z,24.67
2023-03-04T10:42:25.500Z,21.70
2023-03-04T10:44:34.719Z,21.50
2023-03-04T10:46:41.466Z,21.92
2023-03-04T10:48:46.724Z,23.15
2023-03-04T10:52:57.699Z,23.30
2023-03-04T10:55:05.325Z,20.60
2023-03-04T10:57:19.146Z,22.55
2023-03-04T10:59:41.893Z,22.23
2023-03-04T11:01:46.750Z,27.13
2023-03-04T11:03:52.269Z,20.33
2023-03-04T11:06:09.354Z,22.45
2023-03-04T11:08:22.362Z,21.45
2023-03-04T11:10:31.636Z,20.38
2023-03-04T11:12:37.798Z,25.88
2023-03-04T11:14:49.697Z,20.52
2023-03-04T11:16:59.821Z,21.48
2023-03-04T11:19:09.149Z,24.52
2023-03-04T11:21:20.433Z,19.65
2023-03-04T11:23:35.134Z,22.88
2023-03-04T11:25:44.906Z,22.20
2023-03-04T11:27:55.378Z,20.73
2023-03-04T11:30:16.249Z,25.20
2023-03-04T11:32:24.348Z,23.13
2023-03-04T11:34:40.324Z,19.98
2023-03-04T11:36:57.674Z,20.08
2023-03-04T11:39:04.768Z,22.23
2023-03-04T11:41:16.804Z,23.95
2023-03-04T11:43:27.486Z,23.02
2023-03-04T11:45:47.188Z,26.33
2023-03-04T11:48:03.347Z,27.17
2023-03-04T11:50:32.697Z,25.60
2023-03-04T11:52:56.133Z,23.17
2023-03-04T11:55:15.077Z,22.02
2023-03-04T11:57:33.575Z,25.02
2023-03-04T11:59:59.590Z,22.58
2023-03-04T12:02:25.274Z,21.77
2023-03-04T12:04:47.168Z,21.02
2023-03-04T12:07:06.818Z,22.73
2023-03-04T12:09:35.382Z,23.67
2023-03-04T12:11:51.526Z,22.23
2023-03-04T12:14:16.485Z,22.25
2023-03-04T12:16:41.208Z,23.92
2023-03-04T12:19:01.451Z,22.92
2023-03-04T12:21:28.331Z,25.70
2023-03-04T12:23:48.177Z,20.58
2023-03-04T12:26:00.554Z,20.83
2023-03-04T12:28:23.644Z,23.25
2023-03-04T12:30:41.338Z,21.65
2023-03-04T12:32:55.418Z,20.00
2023-03-04T12:35:26.064Z,21.60
2023-03-04T12:37:47.374Z,25.60
2023-03-04T12:40:08.773Z,23.25
2023-03-04T12:42:24.151Z,24.38
2023-03-04T12:44:29.510Z,22.45
2023-03-04T12:46:45.107Z,24.48
2023-03-04T12:49:03.118Z,22.65
2023-03-04T12:51:28.257Z,19.88
2023-03-04T12:53:40.827Z,24.30
2023-03-04T12:55:48.048Z,20.58
2023-03-04T12:57:53.558Z,24.55
2023-03-04T13:00:02.966Z,22.25
2023-03-04T13:02:30.455Z,20.52
2023-03-04T13:04:47.085Z,22.75
2023-03-04T13:07:12.905Z,19.88
2023-03-04T13:09:25.406Z,21.83
2023-03-04T13:11:47.346Z,25.13
2023-03-04T13:14:05.808Z,21.50
2023-03-04T13:16:34.992Z,28.45
2023-03-04T13:18:41.034Z,22.13
2023-03-04T13:20:46.050Z,23.45
2023-03-04T13:22:56.983Z,23.77
2023-03-04T13:25:05.279Z,20.95
2023-03-04T13:27:40.090Z,26.00
2023-03-04T13:29:44.991Z,21.10
2023-03-04T13:32:07.212Z,24.27
2023-03-04T13:34:49.085Z,21.77
2023-03-04T13:36:59.773Z,24.00
2023-03-04T13:39:07.201Z,21.33
2023-03-04T13:41:17.451Z,20.27
2023-03-04T13:43:41.449Z,18.98
2023-03-04T13:45:46.328Z,19.83
2023-03-04T13:47:53.739Z,21.50
2023-03-04T13:50:29.990Z,31.85
2023-03-04T13:52:44.421Z,23.13
2023-03-04T13:54:49.216Z,20.25
2023-03-04T13:57:18.743Z,19.73
2023-03-04T13:59:32.976Z,22.10
2023-03-04T14:01:50.817Z,19.25
2023-03-04T14:03:58.837Z,25.17
2023-03-04T14:06:19.924Z,19.77
2023-03-04T14:08:28.525Z,24.35
2023-03-04T14:10:33.359Z,20.02
2023-03-04T14:12:40.317Z,31.55
2023-03-04T14:14:50.517Z,21.80
2023-03-04T14:16:59.041Z,19.02
2023-03-04T14:19:09.564Z,19.05
2023-03-04T14:21:17.121Z,19.73
2023-03-04T14:23:28.374Z,20.52
2023-03-04T14:25:36.666Z,22.75
2023-03-04T14:27:41.837Z,22.60
2023-03-04T14:29:46.644Z,21.20
2023-03-04T14:31:51.731Z,26.42
2023-03-04T14:36:08.356Z,19.55
2023-03-04T14:38:23.796Z,20.08
2023-03-04T14:40:32.937Z,25.05
2023-03-04T14:42:45.083Z,21.02
2023-03-04T14:44:52.607Z,18.65
2023-03-04T14:47:07.993Z,21.67
2023-03-04T14:49:16.323Z,24.83
2023-03-04T14:51:39.316Z,26.48
2023-03-04T14:53:56.913Z,23.98
2023-03-04T14:56:04.586Z,22.23
2023-03-04T14:58:11.125Z,26.40
2023-03-04T15:00:30.659Z,24.13
2023-03-04T15:02:42.018Z,21.10
2023-03-04T15:04:47.344Z,31.20
2023-03-04T15:06:56.581Z,24.30
2023-03-04T15:09:04.179Z,23.88
2023-03-04T15:11:10.680Z,21.50
2023-03-04T15:13:17.221Z,21.55
2023-03-04T15:15:38.235Z,27.98
2023-03-04T15:17:45.362Z,20.00
2023-03-04T15:20:01.489Z,21.90
2023-03-04T15:22:10.724Z,21.15
2023-03-04T15:24:16.356Z,20.15
2023-03-04T15:26:21.305Z,24.35
2023-03-04T15:28:27.683Z,23.92
2023-03-04T15:30:34.482Z,22.45
2023-03-04T15:32:39.336Z,21.33
2023-03-04T15:34:44.225Z,22.20
2023-03-04T15:36:51.603Z,22.67
2023-03-04T15:38:59.160Z,25.85
2023-03-04T15:41:03.977Z,25.80
2023-03-04T15:43:10.161Z,21.63
2023-03-04T15:45:24.151Z,23.30
2023-03-04T15:47:29.036Z,23.65
2023-03-04T15:49:33.846Z,19.45
2023-03-04T15:51:39.087Z,23.15
2023-03-04T15:55:52.651Z,24.23
2023-03-04T15:58:00.249Z,19.35
2023-03-04T16:00:05.270Z,21.92
2023-03-04T16:02:23.212Z,22.52
2023-03-04T16:04:28.264Z,19.05
2023-03-04T16:06:38.197Z,24.42
2023-03-04T16:08:44.723Z,22.50
2023-03-04T16:10:53.138Z,28.90
2023-03-04T16:12:57.954Z,25.30
2023-03-04T16:15:05.029Z,26.50
2023-03-04T16:17:12.397Z,18.73
2023-03-04T16:19:17.165Z,20.40
2023-03-04T16:21:24.772Z,30.67
2023-03-04T16:23:29.658Z,20.55
2023-03-04T16:25:34.708Z,19.50
2023-03-04T16:27:42.911Z,20.58
2023-03-04T16:29:47.834Z,20.52
2023-03-04T16:31:52.638Z,21.58
2023-03-04T16:33:57.526Z,21.58
2023-03-04T16:36:04.126Z,17.63
2023-03-04T16:38:16.115Z,18.35
2023-03-04T16:40:23.534Z,22.90
2023-03-04T16:42:28.334Z,25.00
2023-03-04T16:44:37.563Z,21.75
2023-03-04T16:46:42.799Z,22.17
2023-03-04T16:50:52.451Z,26.38
2023-03-04T16:52:59.082Z,30.13
2023-03-04T16:55:03.931Z,22.40
2023-03-04T16:57:09.311Z,23.85
2023-03-04T16:59:18.697Z,19.27
2023-03-04T17:01:27.706Z,19.20
2023-03-04T17:03:32.770Z,15.95
2023-03-04T17:05:37.604Z,19.50
2023-03-04T17:07:42.442Z,19.38
2023-03-04T17:09:47.876Z,23.20
2023-03-04T17:11:53.206Z,20.05
2023-03-04T17:16:04.354Z,23.42
2023-03-04T17:18:12.026Z,19.77
2023-03-04T17:20:18.528Z,20.25
2023-03-04T17:22:23.698Z,24.02
2023-03-04T17:24:29.613Z,21.00
2023-03-04T17:26:34.864Z,23.55
2023-03-04T17:28:39.937Z,24.58
2023-03-04T17:30:44.761Z,20.13
2023-03-04T17:32:49.664Z,19.73
2023-03-04T17:34:57.223Z,23.75
2023-03-04T17:37:02.516Z,27.58
2023-03-04T17:41:16.157Z,19.77
2023-03-04T17:43:21.754Z,18.65
2023-03-04T17:45:26.651Z,21.88
2023-03-04T17:47:36.072Z,19.25
2023-03-04T17:49:41.007Z,19.15
2023-03-04T17:51:48.400Z,22.20
2023-03-04T17:53:53.171Z,24.52
2023-03-04T17:56:00.189Z,22.17
2023-03-04T17:58:04.980Z,26.35
2023-03-04T18:00:11.470Z,20.88
2023-03-04T18:02:17.528Z,17.10
2023-03-04T18:04:22.435Z,19.33
2023-03-04T18:06:27.724Z,26.98
2023-03-04T18:08:37.238Z,24.83
2023-03-04T18:10:42.106Z,20.50
2023-03-04T18:12:47.499Z,24.02
2023-03-04T18:14:54.361Z,20.10
2023-03-04T18:16:59.225Z,29.35
2023-03-04T18:19:04.809Z,23.92
2023-03-04T18:21:09.956Z,21.85
2023-03-04T18:23:14.780Z,23.70
2023-03-04T18:25:22.409Z,25.13
2023-03-04T18:27:27.953Z,33.53
2023-03-04T18:29:34.276Z,30.33
2023-03-04T18:31:39.486Z,25.92
2023-03-04T18:35:48.892Z,23.00
2023-03-04T18:37:53.916Z,19.77
2023-03-04T18:39:58.721Z,18.88
2023-03-04T18:42:06.441Z,24.95
2023-03-04T18:44:11.740Z,26.67
2023-03-04T18:46:29.617Z,27.42
2023-03-04T18:48:38.999Z,21.52
2023-03-04T18:50:43.877Z,20.25
2023-03-04T18:52:49.205Z,20.90
2023-03-04T18:54:54.034Z,21.63
2023-03-04T18:57:02.773Z,18.77
2023-03-04T18:59:16.141Z,17.50
2023-03-04T19:01:23.132Z,22.77
2023-03-04T19:03:28.308Z,21.23
2023-03-04T19:05:38.261Z,22.90
2023-03-04T19:07:43.396Z,18.15
2023-03-04T19:09:48.228Z,23.17
2023-03-04T19:11:53.158Z,19.00
2023-03-04T19:13:58.168Z,18.33
2023-03-04T19:16:05.716Z,19.67
2023-03-04T19:18:10.719Z,19.88
2023-03-04T19:20:17.520Z,19.95
2023-03-04T19:22:22.320Z,24.77
2023-03-04T19:24:27.151Z,27.98
2023-03-04T19:26:32.036Z,22.90
2023-03-04T19:28:37.035Z,19.52
2023-03-04T19:30:42.861Z,24.75
2023-03-04T19:32:50.368Z,31.77
2023-03-04T19:34:55.119Z,24.08
2023-03-04T19:37:00.001Z,29.92
2023-03-04T19:39:04.841Z,25.45
2023-03-04T19:41:13.864Z,35.45
2023-03-04T19:43:18.880Z,22.83
2023-03-04T19:45:23.801Z,25.42
2023-03-04T19:47:28.753Z,21.50
2023-03-04T19:49:37.201Z,24.92
2023-03-04T19:51:42.283Z,22.40
2023-03-04T19:53:47.722Z,24.65
2023-03-04T19:55:53.862Z,25.08
2023-03-04T19:57:58.793Z,21.50
2023-03-04T20:00:07.431Z,25.98
2023-03-04T20:02:12.280Z,24.83
2023-03-04T20:04:19.807Z,25.63
2023-03-04T20:06:28.143Z,23.25
2023-03-04T20:08:32.942Z,24.65
2023-03-04T20:10:41.100Z,21.02
2023-03-04T20:12:45.886Z,28.10
2023-03-04T20:14:51.268Z,22.95
2023-03-04T20:16:56.246Z,23.90
2023-03-04T20:19:01.662Z,29.35
2023-03-04T20:21:07.353Z,29.17
2023-03-04T20:23:20.228Z,28.00
2023-03-04T20:25:25.369Z,22.80
2023-03-04T20:27:30.185Z,23.38
2023-03-04T20:29:34.974Z,20.27
2023-03-04T20:31:41.044Z,21.73
2023-03-04T20:33:47.716Z,21.27
2023-03-04T20:35:52.641Z,21.35
2023-03-04T20:37:57.493Z,26.33
2023-03-04T20:40:04.941Z,24.10
2023-03-04T20:42:09.733Z,26.80
2023-03-04T20:44:14.586Z,23.17
2023-03-04T20:46:34.653Z,21.40
2023-03-04T20:48:39.585Z,21.60
2023-03-04T20:50:44.624Z,18.17
2023-03-04T20:52:49.454Z,22.63
2023-03-04T20:54:54.303Z,26.80
2023-03-04T20:57:01.825Z,27.85
2023-03-04T20:59:08.916Z,24.85
2023-03-04T21:01:13.915Z,28.38
2023-03-04T21:03:19.326Z,22.67
2023-03-04T21:05:24.110Z,24.83
2023-03-04T21:07:29.055Z,24.25
2023-03-04T21:09:33.957Z,27.95
2023-03-04T21:11:40.828Z,19.83
2023-03-04T21:13:53.991Z,20.35
2023-03-04T21:15:59.742Z,21.20
2023-03-04T21:18:04.567Z,25.67
2023-03-04T21:20:10.968Z,23.75
2023-03-04T21:22:18.752Z,22.27
2023-03-04T21:24:25.619Z,22.52
2023-03-04T21:26:30.491Z,23.17
2023-03-04T21:28:35.552Z,25.00
2023-03-04T21:30:43.286Z,20.90
2023-03-04T21:32:48.219Z,22.15
2023-03-04T21:34:53.672Z,29.17
2023-03-04T21:36:58.558Z,31.38
2023-03-04T21:39:03.297Z,27.10
2023-03-04T21:41:08.211Z,29.90
2023-03-04T21:43:13.041Z,24.77
2023-03-04T21:45:17.875Z,30.55
2023-03-04T21:47:25.513Z,30.95
2023-03-04T21:49:31.038Z,29.98
2023-03-04T21:51:36.246Z,29.58
2023-03-04T21:53:41.137Z,32.45
2023-03-04T21:55:45.903Z,27.88
2023-03-04T21:57:50.970Z,32.80
2023-03-04T21:59:55.751Z,30.88
2023-03-04T22:02:00.614Z,32.30
2023-03-04T22:04:08.333Z,32.17
2023-03-04T22:06:15.026Z,27.67
2023-03-04T22:08:22.638Z,31.00
2023-03-04T22:10:27.587Z,24.13
2023-03-04T22:12:32.681Z,30.50
2023-03-04T22:14:37.472Z,29.48
2023-03-04T22:16:59.035Z,26.85
2023-03-04T22:19:03.929Z,31.08
2023-03-04T22:21:13.537Z,29.80
2023-03-04T22:23:20.997Z,27.88
2023-03-04T22:25:25.801Z,30.98
2023-03-04T22:27:30.789Z,38.35
2023-03-04T22:29:38.401Z,28.92
2023-03-04T22:31:43.225Z,26.48
2023-03-04T22:33:48.700Z,32.70
2023-03-04T22:35:53.686Z,27.90
2023-03-04T22:38:01.073Z,32.55
2023-03-04T22:40:06.318Z,30.65
2023-03-04T22:44:16.682Z,32.83
2023-03-04T22:46:24.694Z,31.90
2023-03-04T22:48:30.035Z,30.85
2023-03-04T22:52:41.264Z,33.92
2023-03-04T22:54:48.619Z,36.05
2023-03-04T22:56:53.422Z,30.50
2023-03-04T22:58:58.251Z,32.38
2023-03-04T23:01:03.265Z,34.83
2023-03-04T23:03:08.721Z,39.53
2023-03-04T23:05:14.529Z,35.80
2023-03-04T23:07:19.506Z,34.40
2023-03-04T23:09:24.291Z,35.45
2023-03-04T23:11:35.394Z,34.65
2023-03-04T23:13:40.562Z,36.85
2023-03-04T23:15:45.829Z,34.53
2023-03-04T23:17:50.649Z,32.78
2023-03-04T23:19:55.969Z,36.65
2023-03-04T23:24:09.558Z,33.90
2023-03-04T23:26:18.639Z,38.42
2023-03-04T23:28:26.028Z,42.90
2023-03-04T23:30:30.904Z,39.05
2023-03-04T23:32:35.913Z,34.67
2023-03-04T23:34:40.783Z,40.03
2023-03-04T23:36:45.829Z,40.05
2023-03-04T23:40:55.935Z,39.30
2023-03-04T23:43:00.775Z,39.90
2023-03-04T23:45:09.801Z,42.88
2023-03-04T23:47:14.591Z,43.28
2023-03-04T23:49:19.440Z,39.53
2023-03-04T23:51:26.622Z,40.40
2023-03-04T23:53:33.882Z,40.10
2023-03-04T23:55:38.718Z,40.25
2023-03-04T23:57:43.455Z,44.00
2023-03-04T23:59:48.232Z,48.28
